Time;durP1;ratioP1;P1;durP2;ratioP2;P2;SDS_P1;SDS_P2;PMS_P1;PMS_P2;Temp;Humidity;BMP_temperature;BMP_pressure;BME280_temperature;BME280_humidity;BME280_pressure;Samples;Min_cycle;Max_cycle;Signal;HPM_P1;HPM_P2
2022/11/12 00:00:31;;;;;;;14.93;7.80;;;;;;;15.66;100.00;101958.88;2093190;28;20056;-71
2022/11/12 00:02:12;;;;;;;16.83;7.97;;;;;;;15.67;100.00;101960.66;2099346;28;20052;-71
2022/11/12 00:03:54;;;;;;;14.27;7.40;;;;;;;15.66;100.00;101960.63;2092008;28;20052;-72
2022/11/12 00:05:36;;;;;;;16.05;7.63;;;;;;;15.66;100.00;101964.19;2099442;28;20056;-71
2022/11/12 00:07:17;;;;;;;14.63;7.22;;;;;;;15.65;100.00;101958.84;2096083;28;20113;-71
2022/11/12 00:08:58;;;;;;;17.05;7.68;;;;;;;15.68;100.00;101959.78;2104848;28;20569;-72
2022/11/12 00:10:39;;;;;;;16.30;8.65;;;;;;;15.68;100.00;101954.47;2100898;28;20070;-71
2022/11/12 00:12:20;;;;;;;19.60;7.85;;;;;;;15.67;100.00;101957.09;2087028;28;20044;-71
2022/11/12 00:14:03;;;;;;;18.50;8.70;;;;;;;15.59;100.00;101957.00;2098578;28;20845;-71
2022/11/12 00:15:43;;;;;;;;;;;;;;;15.45;100.00;101951.44;2096726;28;20063;-71
2022/11/12 00:17:24;;;;;;;18.73;7.63;;;;;;;15.37;100.00;101953.06;2092114;28;19927;-71
2022/11/12 00:19:05;;;;;;;17.80;8.38;;;;;;;15.34;100.00;101955.69;2100533;28;20502;-70
2022/11/12 00:20:46;;;;;;;15.73;8.00;;;;;;;15.33;100.00;101947.69;2099371;28;20055;-71
2022/11/12 00:22:28;;;;;;;22.30;8.18;;;;;;;15.34;100.00;101950.38;2096843;28;20094;-70
2022/11/12 00:24:09;;;;;;;19.13;9.65;;;;;;;15.37;100.00;101947.75;2099348;28;20912;-70
2022/11/12 00:25:58;;;;;;;18.02;9.48;;;;;;;15.39;100.00;101950.44;2094828;28;20086;-71
2022/11/12 00:27:38;;;;;;;18.25;8.52;;;;;;;15.37;100.00;101946.84;2093538;28;20190;-71
2022/11/12 00:29:20;;;;;;;15.68;8.70;;;;;;;15.37;100.00;101941.53;2109536;28;20094;-71
2022/11/12 00:31:07;;;;;;;18.02;8.55;;;;;;;15.35;100.00;101937.97;2105319;28;20048;-70
2022/11/12 00:32:47;;;;;;;18.38;8.70;;;;;;;15.29;100.00;101936.13;2104973;28;20147;-72
2022/11/12 00:34:28;;;;;;;17.75;9.23;;;;;;;15.30;100.00;101942.31;2105731;28;20518;-71
2022/11/12 00:36:10;;;;;;;17.58;8.25;;;;;;;15.29;100.00;101935.22;2113533;28;20055;-71
2022/11/12 00:37:54;;;;;;;18.20;9.27;;;;;;;15.28;100.00;101939.66;2113909;28;20558;-71
2022/11/12 00:39:35;;;;;;;20.30;8.82;;;;;;;15.28;100.00;101930.78;2113237;28;20043;-71
2022/11/12 00:41:14;;;;;;;16.52;9.15;;;;;;;15.30;100.00;101932.56;2112425;28;20834;-71
2022/11/12 00:42:56;;;;;;;15.30;9.00;;;;;;;15.31;100.00;101929.03;2113850;28;20046;-71
2022/11/12 00:44:38;;;;;;;15.73;8.98;;;;;;;15.33;100.00;101927.31;2114048;28;20044;-71
2022/11/12 00:46:19;;;;;;;;;;;;;;;15.28;100.00;101923.69;2105496;28;20040;-71
2022/11/12 00:48:00;;;;;;;16.40;8.77;;;;;;;15.32;100.00;101928.16;2111635;28;19920;-71
2022/11/12 00:49:40;;;;;;;16.77;9.02;;;;;;;15.39;100.00;101924.72;2104787;28;20076;-70
2022/11/12 00:51:21;;;;;;;16.33;9.20;;;;;;;15.48;100.00;101926.63;2106401;28;20090;-71
2022/11/12 00:53:02;;;;;;;15.02;9.45;;;;;;;15.56;100.00;101924.13;2113827;28;20055;-71
2022/11/12 00:54:43;;;;;;;18.58;9.23;;;;;;;15.63;100.00;101921.53;2097013;28;20477;-71
2022/11/12 00:56:25;;;;;;;17.75;9.98;;;;;;;15.73;100.00;101915.47;2096846;28;20107;-71
2022/11/12 00:58:06;;;;;;;20.58;10.27;;;;;;;15.78;100.00;101915.53;2098172;28;20578;-71
2022/11/12 00:59:48;;;;;;;24.65;10.23;;;;;;;15.78;100.00;101916.44;2098028;28;20049;-71
2022/11/12 01:01:29;;;;;;;17.35;9.75;;;;;;;15.69;100.00;101910.97;2098213;28;20041;-71
2022/11/12 01:03:10;;;;;;;19.45;9.70;;;;;;;15.59;100.00;101916.16;2102359;28;20052;-71
2022/11/12 01:04:51;;;;;;;22.63;10.68;;;;;;;15.53;100.00;101911.66;2114977;28;20055;-71
2022/11/12 01:06:32;;;;;;;16.98;9.85;;;;;;;15.49;100.00;101908.00;2098245;28;20051;-72
2022/11/12 01:08:13;;;;;;;20.13;10.02;;;;;;;15.49;100.00;101908.00;2105731;28;20075;-71
2022/11/12 01:09:54;;;;;;;20.33;10.38;;;;;;;15.48;100.00;101916.00;2101457;28;20075;-71
2022/11/12 01:11:36;;;;;;;13.30;9.85;;;;;;;15.45;100.00;101914.16;2105624;28;20050;-71
2022/11/12 01:13:16;;;;;;;18.98;9.60;;;;;;;15.43;100.00;101912.34;2105790;28;20043;-71
2022/11/12 01:15:00;;;;;;;17.00;10.02;;;;;;;15.38;100.00;101909.63;2105143;28;20055;-71
2022/11/12 01:16:42;;;;;;;19.27;10.52;;;;;;;15.36;100.00;101911.34;2105459;28;20415;-71
2022/11/12 01:18:22;;;;;;;19.27;10.57;;;;;;;15.34;100.00;101913.13;2105526;28;20070;-72
2022/11/12 01:20:04;;;;;;;19.77;11.27;;;;;;;15.31;100.00;101912.16;2105467;28;20101;-71
2022/11/12 01:21:45;;;;;;;18.45;10.75;;;;;;;15.26;100.00;101912.13;2097107;28;20049;-71
2022/11/12 01:23:26;;;;;;;16.75;10.88;;;;;;;15.20;100.00;101912.03;2105836;28;20105;-71
2022/11/12 01:25:08;;;;;;;17.67;11.32;;;;;;;15.19;100.00;101910.22;2105860;28;20040;-71
2022/11/12 01:26:48;;;;;;;22.55;10.50;;;;;;;15.15;100.00;101905.75;2105917;28;20085;-71
2022/11/12 01:28:29;;;;;;;17.95;10.25;;;;;;;15.13;100.00;101905.72;2108381;28;20645;-71
2022/11/12 01:30:13;;;;;;;17.35;9.43;;;;;;;15.11;100.00;101906.56;2097098;28;20140;-71
2022/11/12 01:31:53;;;;;;;17.38;10.13;;;;;;;15.06;100.00;101905.59;2097366;28;20052;-70
2022/11/12 01:33:34;;;;;;;17.23;10.77;;;;;;;15.03;100.00;101901.09;2097211;28;20056;-71
2022/11/12 01:35:15;;;;;;;18.85;11.40;;;;;;;15.01;100.00;101905.53;2097318;28;20514;-71
2022/11/12 01:36:56;;;;;;;22.42;12.32;;;;;;;14.98;100.00;101901.91;2105819;28;20048;-71
2022/11/12 01:38:38;;;;;;;18.17;10.18;;;;;;;14.94;100.00;101900.97;2097502;28;20048;-71
2022/11/12 01:40:19;;;;;;;20.40;11.07;;;;;;;14.90;100.00;101896.47;2109388;28;20126;-70
2022/11/12 01:42:00;;;;;;;17.95;11.77;;;;;;;14.88;100.00;101903.53;2112847;28;20057;-71
2022/11/12 01:43:40;;;;;;;17.15;10.40;;;;;;;14.86;100.00;101902.63;2105678;28;20080;-70
2022/11/12 01:45:22;;;;;;;17.95;10.82;;;;;;;14.82;100.00;101895.47;2105573;28;20040;-71
2022/11/12 01:47:11;;;;;;;21.17;12.30;;;;;;;14.77;100.00;101895.38;2114073;28;20044;-71
2022/11/12 01:48:55;;;;;;;19.40;11.63;;;;;;;14.71;100.00;101895.28;2105395;28;20052;-71
2022/11/12 01:50:39;;;;;;;22.30;11.82;;;;;;;14.68;100.00;101897.00;2105592;28;20369;-71
2022/11/12 01:52:25;;;;;;;19.00;11.63;;;;;;;14.63;100.00;101890.72;2097169;28;20048;-71
2022/11/12 01:54:09;;;;;;;17.80;12.02;;;;;;;14.58;100.00;101889.72;2103782;28;20052;-71
2022/11/12 01:55:51;;;;;;;18.13;11.15;;;;;;;14.52;100.00;101885.19;2105472;28;20056;-71
2022/11/12 01:57:37;;;;;;;24.23;13.23;;;;;;;14.49;100.00;101885.16;2105902;28;20499;-71
2022/11/12 01:59:23;;;;;;;19.23;12.45;;;;;;;14.48;100.00;101887.78;2105280;28;20105;-71
2022/11/12 02:01:06;;;;;;;17.50;11.27;;;;;;;14.44;100.00;101883.28;2105054;28;20139;-71
2022/11/12 02:02:53;;;;;;;19.33;12.52;;;;;;;14.43;100.00;101887.72;2105376;28;20102;-71
2022/11/12 02:04:36;;;;;;;20.20;11.98;;;;;;;14.41;100.00;101886.78;2113625;28;20396;-71
2022/11/12 02:06:17;;;;;;;21.05;11.85;;;;;;;14.40;100.00;101886.75;2105610;28;20147;-71
2022/11/12 02:08:00;;;;;;;19.00;11.82;;;;;;;14.37;100.00;101879.59;2114010;28;20205;-71
2022/11/12 02:09:42;;;;;;;19.02;12.45;;;;;;;14.36;100.00;101880.47;2097096;28;20088;-71
2022/11/12 02:11:23;;;;;;;23.33;12.43;;;;;;;14.32;100.00;101881.25;2113380;28;20043;-71
2022/11/12 02:15:03;;;;;;;19.55;11.77;;;;;;;14.27;100.00;101883.84;2112834;28;20094;-71
2022/11/12 02:16:48;;;;;;;22.02;12.70;;;;;;;14.27;100.00;101878.53;2105300;28;20071;-72
2022/11/12 02:18:29;;;;;;;21.58;13.10;;;;;;;14.27;100.00;101874.97;2113318;28;20055;-71
2022/11/12 02:20:10;;;;;;;22.85;14.43;;;;;;;14.27;100.00;101883.84;2105287;28;20135;-71
2022/11/12 02:21:52;;;;;;;20.00;13.50;;;;;;;14.28;100.00;101875.00;2111963;28;20312;-72
2022/11/12 02:23:32;;;;;;;;;;;;;;;14.23;100.00;101876.69;2105078;28;20566;-71
2022/11/12 02:25:17;;;;;;;22.10;13.00;;;;;;;14.26;100.00;101874.06;2110274;28;19928;-71
2022/11/12 02:26:59;;;;;;;20.88;13.48;;;;;;;14.29;100.00;101879.47;2097277;28;20052;-71
2022/11/12 02:28:41;;;;;;;24.42;13.13;;;;;;;14.30;100.00;101875.94;2102695;28;20047;-71
2022/11/12 02:30:32;;;;;;;19.15;12.32;;;;;;;14.31;100.00;101882.13;2112998;28;20039;-71
2022/11/12 02:32:13;;;;;;;17.88;12.55;;;;;;;14.32;100.00;101881.25;2104768;28;20051;-71
2022/11/12 02:33:55;;;;;;;21.17;13.90;;;;;;;14.34;100.00;101882.19;2109420;28;20064;-71
2022/11/12 02:35:36;;;;;;;22.23;12.27;;;;;;;14.34;100.00;101879.53;2105109;28;20074;-71
2022/11/12 02:37:19;;;;;;;18.85;13.50;;;;;;;14.34;100.00;101874.22;2105307;28;20487;-72
2022/11/12 02:38:59;;;;;;;;;;;;;;;14.23;100.00;101876.69;2105215;28;20078;-71
2022/11/12 02:40:40;;;;;;;17.75;12.85;;;;;;;14.22;100.00;101880.22;2113321;28;20022;-71
2022/11/12 02:42:21;;;;;;;20.52;14.10;;;;;;;14.23;100.00;101879.34;2105141;28;20047;-72
2022/11/12 02:44:01;;;;;;;22.55;13.50;;;;;;;14.22;100.00;101880.22;2113576;28;20055;-71
2022/11/12 02:45:42;;;;;;;21.27;13.98;;;;;;;14.25;100.00;101874.03;2103608;28;20040;-71
2022/11/12 02:47:23;;;;;;;23.48;13.40;;;;;;;14.28;100.00;101875.00;2106214;28;20040;-71
2022/11/12 02:49:04;;;;;;;24.67;15.73;;;;;;;14.28;100.00;101868.78;2113149;28;20143;-72
2022/11/12 02:50:44;;;;;;;21.38;13.88;;;;;;;14.22;100.00;101869.59;2096433;28;20044;-71
2022/11/12 02:52:27;;;;;;;21.95;13.95;;;;;;;14.22;100.00;101874.00;2102585;28;20494;-71
2022/11/12 02:54:08;;;;;;;22.55;14.77;;;;;;;14.24;100.00;101874.94;2105190;28;20496;-71
2022/11/12 02:55:49;;;;;;;22.08;14.77;;;;;;;14.26;100.00;101873.19;2104914;28;20052;-71
2022/11/12 02:57:30;;;;;;;26.98;16.15;;;;;;;14.23;100.00;101868.72;2104985;28;20036;-71
2022/11/12 02:59:11;;;;;;;22.20;14.18;;;;;;;14.24;100.00;101877.59;2096476;28;20055;-71
2022/11/12 03:00:52;;;;;;;22.15;14.75;;;;;;;14.27;100.00;101874.97;2102648;28;20046;-71
2022/11/12 03:02:33;;;;;;;23.27;14.90;;;;;;;14.29;100.00;101878.56;2104813;28;20036;-72
2022/11/12 03:04:14;;;;;;;24.05;15.57;;;;;;;14.29;100.00;101875.91;2104938;28;20056;-71
2022/11/12 03:05:55;;;;;;;20.95;13.98;;;;;;;14.29;100.00;101874.16;2104760;28;20051;-71
2022/11/12 03:07:38;;;;;;;23.27;15.32;;;;;;;14.32;100.00;101879.50;2113420;28;20039;-71
2022/11/12 03:09:18;;;;;;;;;;;;;;;14.27;100.00;101874.97;2105516;28;20075;-71
2022/11/12 03:10:59;;;;;;;25.38;15.57;;;;;;;14.28;100.00;101874.09;2104786;28;19919;-71
2022/11/12 03:12:40;;;;;;;27.55;17.80;;;;;;;14.27;100.00;101880.28;2104841;28;20051;-72
2022/11/12 03:14:21;;;;;;;20.00;15.25;;;;;;;14.24;100.00;101877.59;2106438;28;20508;-71
2022/11/12 03:16:02;;;;;;;21.83;15.32;;;;;;;14.24;100.00;101878.44;2096467;28;20048;-71
2022/11/12 03:17:43;;;;;;;23.83;15.55;;;;;;;14.24;100.00;101880.25;2096930;28;20390;-70
2022/11/12 03:19:23;;;;;;;21.27;15.20;;;;;;;14.23;100.00;101871.38;2104327;28;20173;-71
2022/11/12 03:21:05;;;;;;;19.10;14.07;;;;;;;14.26;100.00;101874.06;2096475;28;20195;-71
2022/11/12 03:22:57;;;;;;;26.38;16.30;;;;;;;14.27;100.00;101872.31;2096392;28;20063;-71
2022/11/12 03:24:38;;;;;;;25.55;17.02;;;;;;;14.20;100.00;101870.41;2104813;28;20055;-71
2022/11/12 03:26:19;;;;;;;24.88;16.55;;;;;;;14.16;100.00;101868.56;2096507;28;20045;-71
2022/11/12 03:28:00;;;;;;;22.88;17.35;;;;;;;14.14;100.00;101872.94;2099470;28;20048;-71
2022/11/12 03:29:41;;;;;;;25.70;17.27;;;;;;;14.12;100.00;101870.25;2108520;28;20181;-71
2022/11/12 03:31:22;;;;;;;20.00;15.25;;;;;;;14.08;100.00;101870.19;2108479;28;20459;-71
2022/11/12 03:33:04;;;;;;;19.00;15.40;;;;;;;14.05;100.00;101880.72;2104810;28;20110;-70
2022/11/12 03:34:45;;;;;;;22.70;16.33;;;;;;;13.99;100.00;101876.19;2112537;28;20116;-71
2022/11/12 03:36:26;;;;;;;21.63;15.65;;;;;;;13.98;100.00;101877.06;2099343;28;20044;-71
2022/11/12 03:38:08;;;;;;;25.02;16.77;;;;;;;14.03;100.00;101866.56;2096526;28;20096;-71
2022/11/12 03:39:49;;;;;;;;;;;;;;;14.03;100.00;101870.09;2105516;28;20373;-71
2022/11/12 03:41:30;;;;;;;23.80;16.00;;;;;;;14.10;100.00;101873.78;2096502;28;19920;-71
2022/11/12 03:43:11;;;;;;;23.67;17.83;;;;;;;14.11;100.00;101873.78;2102066;28;20056;-71
2022/11/12 03:44:51;;;;;;;30.13;17.33;;;;;;;14.12;100.00;101877.31;2104202;28;20366;-71
2022/11/12 03:46:32;;;;;;;22.73;15.63;;;;;;;14.15;100.00;101880.97;2096500;28;20053;-71
2022/11/12 03:48:13;;;;;;;25.42;17.45;;;;;;;14.22;100.00;101880.22;2096991;28;20056;-71
2022/11/12 03:49:55;;;;;;;23.63;16.50;;;;;;;14.30;100.00;101875.03;2104521;28;20066;-71
2022/11/12 03:51:35;;;;;;;24.38;16.77;;;;;;;14.37;100.00;101876.94;2104473;28;20040;-71
2022/11/12 03:53:18;;;;;;;22.10;16.75;;;;;;;14.48;100.00;101880.72;2104584;28;20056;-71
2022/11/12 03:54:57;;;;;;;;;;;;;;;14.50;100.00;101880.75;2105417;28;20052;-71
2022/11/12 03:56:39;;;;;;;20.67;14.98;;;;;;;14.53;100.00;101887.00;2104547;28;20339;-71
2022/11/12 03:58:20;;;;;;;24.52;17.15;;;;;;;14.57;100.00;101882.66;2098524;28;20055;-71
2022/11/12 03:59:59;;;;;;;22.52;16.23;;;;;;;14.55;100.00;101882.59;2102021;28;21053;-70
2022/11/12 04:01:40;;;;;;;23.63;17.00;;;;;;;14.55;100.00;101877.28;2101727;28;20051;-71
2022/11/12 04:03:21;;;;;;;26.20;17.27;;;;;;;14.59;100.00;101886.19;2104291;28;20048;-71
2022/11/12 04:09:01;;;;;;;25.90;18.33;;;;;;;14.75;100.00;101890.91;2112774;28;20131;-71
2022/11/12 04:10:45;;;;;;;25.83;19.52;;;;;;;14.74;100.00;101887.38;2104674;28;20055;-71
2022/11/12 04:14:24;;;;;;;28.95;18.30;;;;;;;14.71;100.00;101884.63;2104316;28;20047;-71
2022/11/12 04:22:06;;;;;;;27.30;18.55;;;;;;;14.73;100.00;101895.31;2090178;28;20431;-71
2022/11/12 04:23:47;;;;;;;23.83;18.38;;;;;;;14.69;100.00;101893.47;2104290;28;20147;-71
2022/11/12 04:27:30;;;;;;;23.25;16.23;;;;;;;14.59;100.00;101894.16;2104569;28;20040;-72
2022/11/12 04:31:07;;;;;;;22.27;16.38;;;;;;;14.57;100.00;101899.44;2095828;28;20045;-71
2022/11/12 04:32:53;;;;;;;27.38;18.08;;;;;;;14.55;100.00;101895.91;2110671;28;20043;-71
2022/11/12 04:34:33;;;;;;;23.90;16.80;;;;;;;14.54;100.00;101903.84;2106491;28;20040;-71
2022/11/12 04:36:14;;;;;;;23.45;15.68;;;;;;;14.52;100.00;101900.25;2106140;28;20052;-71
2022/11/12 04:37:56;;;;;;;25.58;17.13;;;;;;;14.50;100.00;101900.25;2114246;28;20052;-71
2022/11/12 04:39:36;;;;;;;30.52;18.48;;;;;;;14.47;100.00;101902.84;2106073;28;20549;-71
2022/11/12 04:45:16;;;;;;;23.60;18.13;;;;;;;14.53;100.00;101912.66;2110876;28;20055;-71
2022/11/12 04:46:56;;;;;;;27.17;17.65;;;;;;;14.58;100.00;101913.63;2097949;28;20051;-71
2022/11/12 04:48:36;;;;;;;27.35;17.98;;;;;;;14.59;100.00;101902.16;2097108;28;20366;-72
2022/11/12 04:50:19;;;;;;;23.52;17.40;;;;;;;14.57;100.00;101907.41;2102493;28;20071;-72
2022/11/12 04:52:04;;;;;;;26.63;17.92;;;;;;;14.55;100.00;101905.63;2114294;28;20393;-71
2022/11/12 04:53:45;;;;;;;22.13;16.48;;;;;;;14.53;100.00;101910.00;2106180;28;20079;-71
2022/11/12 04:55:26;;;;;;;27.30;17.73;;;;;;;14.52;100.00;101916.19;2089487;28;20049;-71
2022/11/12 04:57:09;;;;;;;25.60;17.83;;;;;;;14.52;100.00;101911.78;2103510;28;20671;-71
2022/11/12 04:58:50;;;;;;;24.48;16.45;;;;;;;14.51;100.00;101915.28;2105429;28;20044;-71
2022/11/12 05:00:31;;;;;;;27.40;18.63;;;;;;;14.52;100.00;101910.88;2103656;28;20048;-71
2022/11/12 05:02:12;;;;;;;26.63;17.33;;;;;;;14.51;100.00;101914.38;2105994;28;20109;-71
2022/11/12 05:03:53;;;;;;;23.70;18.05;;;;;;;14.55;100.00;101921.56;2103277;28;20048;-71
2022/11/12 05:05:33;;;;;;;27.48;17.13;;;;;;;14.59;100.00;101916.31;2112707;28;20403;-71
2022/11/12 05:07:13;;;;;;;26.10;17.55;;;;;;;14.66;100.00;101920.88;2105790;28;20055;-71
2022/11/12 05:08:54;;;;;;;23.42;16.63;;;;;;;14.73;100.00;101921.88;2104877;28;20178;-71
2022/11/12 05:10:35;;;;;;;26.88;17.27;;;;;;;14.77;100.00;101924.63;2105754;28;20040;-71
2022/11/12 05:12:17;;;;;;;22.95;16.05;;;;;;;14.81;100.00;101932.66;2105783;28;20043;-72
2022/11/12 05:13:57;;;;;;;25.52;16.25;;;;;;;14.79;100.00;101922.00;2105672;28;20056;-72
2022/11/12 05:15:38;;;;;;;25.55;15.90;;;;;;;14.80;100.00;101928.19;2107476;28;20066;-72
2022/11/12 05:17:19;;;;;;;24.95;16.45;;;;;;;14.83;100.00;101930.94;2105651;28;20042;-71
2022/11/12 05:19:00;;;;;;;24.50;16.88;;;;;;;14.88;100.00;101935.44;2105692;28;20059;-71
2022/11/12 05:20:41;;;;;;;23.98;17.17;;;;;;;14.95;100.00;101940.00;2112269;28;20040;-71
2022/11/12 05:22:21;;;;;;;26.98;14.82;;;;;;;15.00;100.00;101940.97;2106209;28;20051;-72
2022/11/12 05:24:02;;;;;;;24.60;16.08;;;;;;;15.02;100.00;101936.59;2104884;28;20059;-71
2022/11/12 05:25:43;;;;;;;23.10;14.60;;;;;;;15.06;100.00;101949.03;2104783;28;20113;-71
2022/11/12 05:27:25;;;;;;;24.08;16.20;;;;;;;15.06;100.00;101949.03;2101985;28;20138;-71
2022/11/12 05:29:05;;;;;;;20.35;15.88;;;;;;;15.04;100.00;101944.56;2105803;28;20109;-71
2022/11/12 05:30:48;;;;;;;25.20;17.38;;;;;;;15.04;100.00;101948.13;2105219;28;20143;-71
2022/11/12 05:32:29;;;;;;;25.20;16.08;;;;;;;15.02;100.00;101947.22;2105814;28;20383;-71
2022/11/12 05:34:10;;;;;;;27.42;17.35;;;;;;;15.01;100.00;101953.41;2101362;28;20071;-71
2022/11/12 05:35:51;;;;;;;25.08;16.35;;;;;;;14.99;100.00;101955.13;2114027;28;20487;-71
2022/11/12 05:37:31;;;;;;;25.80;17.70;;;;;;;14.95;100.00;101963.94;2103876;28;20075;-71
2022/11/12 05:39:11;;;;;;;26.48;17.80;;;;;;;14.91;100.00;101956.75;2112654;28;20779;-71
2022/11/12 05:40:52;;;;;;;25.42;17.35;;;;;;;14.92;100.00;101965.63;2105473;28;20052;-71
2022/11/12 05:42:35;;;;;;;23.67;15.10;;;;;;;14.96;100.00;101963.06;2102139;28;20102;-71
2022/11/12 05:44:14;;;;;;;;;;;;;;;14.96;100.00;101971.06;2106146;28;20051;-71
2022/11/12 05:45:55;;;;;;;21.65;15.57;;;;;;;15.06;100.00;101975.63;2105915;28;20082;-71
2022/11/12 05:47:36;;;;;;;24.27;15.55;;;;;;;15.21;100.00;101977.66;2097790;28;20051;-71
2022/11/12 05:49:17;;;;;;;21.10;15.70;;;;;;;15.36;100.00;101974.38;2105242;28;20600;-71
2022/11/12 05:50:58;;;;;;;21.17;15.52;;;;;;;15.54;100.00;101982.66;2097456;28;20048;-71
2022/11/12 05:52:39;;;;;;;23.17;14.35;;;;;;;15.68;100.00;101982.84;2105618;28;20048;-71
2022/11/12 05:54:20;;;;;;;21.77;14.15;;;;;;;15.77;100.00;101978.53;2097558;28;20509;-71
2022/11/12 05:56:00;;;;;;;21.40;15.32;;;;;;;15.81;100.00;101983.06;2111458;28;20436;-71
2022/11/12 05:57:43;;;;;;;20.20;14.15;;;;;;;15.81;100.00;101982.16;2105554;28;20112;-71
2022/11/12 05:59:24;;;;;;;;;;;;;;;15.75;100.00;101979.41;2109705;28;20035;-71
2022/11/12 06:01:05;;;;;;;23.23;14.88;;;;;;;15.80;100.00;101981.25;2100817;28;19920;-71
2022/11/12 06:02:46;;;;;;;22.45;14.50;;;;;;;15.82;100.00;101984.81;2097479;28;20110;-71
2022/11/12 06:04:27;;;;;;;24.60;15.10;;;;;;;15.86;100.00;101977.78;2105481;28;20044;-71
2022/11/12 06:06:07;;;;;;;21.48;13.85;;;;;;;15.93;100.00;101977.00;2097225;28;20170;-71
2022/11/12 06:07:48;;;;;;;21.23;13.98;;;;;;;16.00;100.00;101969.97;2105421;28;20058;-71
2022/11/12 06:09:29;;;;;;;18.50;13.98;;;;;;;16.07;100.00;101979.84;2099854;28;20074;-71
2022/11/12 06:11:09;;;;;;;18.88;14.38;;;;;;;16.09;100.00;101978.97;2097230;28;20048;-71
2022/11/12 06:12:52;;;;;;;22.27;13.73;;;;;;;16.15;100.00;101978.13;2097055;28;20056;-71
2022/11/12 06:14:33;;;;;;;22.70;13.15;;;;;;;16.18;100.00;101978.19;2109710;28;20048;-72
2022/11/12 06:16:14;;;;;;;19.95;13.25;;;;;;;16.19;100.00;101985.31;2101748;28;20144;-71
2022/11/12 06:17:55;;;;;;;22.83;13.35;;;;;;;16.25;100.00;101982.72;2097967;28;20059;-71
2022/11/12 06:19:36;;;;;;;23.00;14.43;;;;;;;16.34;100.00;101973.03;2096938;28;20659;-72
2022/11/12 06:21:18;;;;;;;25.20;14.27;;;;;;;16.49;100.00;101993.66;2100897;28;20143;-71
2022/11/12 06:22:59;;;;;;;23.02;13.60;;;;;;;16.55;100.00;101988.38;2113246;28;20047;-71
2022/11/12 06:24:40;;;;;;;19.83;12.50;;;;;;;16.59;100.00;101982.22;2098655;28;20124;-71
2022/11/12 06:26:21;;;;;;;19.35;13.55;;;;;;;16.63;100.00;101985.84;2108377;28;20051;-71
2022/11/12 06:28:03;;;;;;;21.30;12.93;;;;;;;16.67;100.00;101987.69;2105402;28;20048;-71
2022/11/12 06:29:44;;;;;;;19.98;12.18;;;;;;;16.66;100.00;101994.78;2113740;28;20071;-71
2022/11/12 06:31:25;;;;;;;19.88;12.77;;;;;;;16.66;100.00;101996.56;2105430;28;20054;-72
2022/11/12 06:33:06;;;;;;;22.88;12.82;;;;;;;16.71;100.00;101998.38;2108811;28;20044;-71
2022/11/12 06:34:47;;;;;;;20.17;11.73;;;;;;;16.79;100.00;102000.22;2104843;28;20060;-71
2022/11/12 06:36:27;;;;;;;18.13;11.20;;;;;;;16.87;100.00;102003.88;2112859;28;20040;-71
2022/11/12 06:38:07;;;;;;;16.83;10.32;;;;;;;16.94;100.00;101995.03;2113442;28;20043;-72
2022/11/12 06:39:48;;;;;;;19.42;10.30;;;;;;;17.03;100.00;101997.78;2102603;28;20063;-71
2022/11/12 06:41:29;;;;;;;21.73;11.27;;;;;;;17.14;100.00;101999.66;2105661;28;20044;-71
2022/11/12 06:43:12;;;;;;;15.68;11.10;;;;;;;17.26;100.00;102006.00;2097113;28;20052;-71
2022/11/12 06:44:52;;;;;;;20.92;12.02;;;;;;;17.32;100.00;102003.38;2104962;28;20067;-71
2022/11/12 06:46:33;;;;;;;19.63;11.57;;;;;;;17.40;100.00;102006.97;2104725;28;20571;-71
2022/11/12 06:48:13;;;;;;;21.25;12.25;;;;;;;17.42;100.00;102003.44;2105164;28;20751;-71
2022/11/12 06:49:54;;;;;;;26.52;11.88;;;;;;;17.40;100.00;102002.53;2100987;28;20040;-71
2022/11/12 06:51:35;;;;;;;17.17;10.65;;;;;;;17.37;100.00;102005.19;2104451;28;20171;-71
2022/11/12 06:53:16;;;;;;;16.48;10.18;;;;;;;17.42;100.00;102006.13;2096659;28;20053;-71
2022/11/12 06:54:57;;;;;;;14.75;9.80;;;;;;;17.64;100.00;102011.66;2101157;28;20097;-71
2022/11/12 06:56:37;;;;;;;17.70;9.63;;;;;;;17.82;100.00;102003.75;2101391;28;20559;-71
2022/11/12 06:58:20;;;;;;;18.98;9.73;;;;;;;18.13;100.00;102004.78;2100893;28;20048;-71
2022/11/12 07:00:01;;;;;;;;;;;;;;;18.35;100.00;102004.00;2105499;28;20508;-71
2022/11/12 07:01:42;;;;;;;15.45;8.77;;;;;;;18.57;100.00;102002.34;2104916;28;19920;-71
2022/11/12 07:03:21;;;;;;;17.58;9.65;;;;;;;18.58;100.00;102001.41;2103331;28;20046;-72
2022/11/12 07:05:02;;;;;;;15.80;9.30;;;;;;;18.66;100.00;101997.00;2107794;28;20044;-71
2022/11/12 07:06:43;;;;;;;14.57;8.73;;;;;;;18.84;100.00;101996.16;2101091;28;20065;-72
2022/11/12 07:08:24;;;;;;;12.23;6.60;;;;;;;19.09;100.00;101998.84;2106376;28;20607;-72
2022/11/12 07:10:06;;;;;;;15.50;8.00;;;;;;;19.33;100.00;101994.38;2104969;28;20050;-71
2022/11/12 07:11:47;;;;;;;16.38;7.25;;;;;;;19.29;100.00;101992.59;2101177;28;20404;-72
2022/11/12 07:13:30;;;;;;;18.00;7.20;;;;;;;19.23;100.00;101988.13;2103879;28;20098;-71
2022/11/12 07:15:11;;;;;;;15.65;7.43;;;;;;;19.25;100.00;101983.66;2108782;28;20249;-72
2022/11/12 07:16:52;;;;;;;19.58;8.27;;;;;;;19.37;100.00;101988.09;2101625;28;20661;-72
2022/11/12 07:18:34;;;;;;;11.98;5.07;;;;;;;19.61;100.00;101980.09;2104790;28;20106;-71
2022/11/12 07:20:14;;;;;;;16.00;5.53;;;;;;;20.06;100.00;101978.16;2096703;28;20454;-71
2022/11/12 07:21:55;;;;;;;12.73;5.38;;;;;;;20.47;100.00;101986.97;2104835;28;20415;-72
2022/11/12 07:23:37;;;;;;;13.50;5.10;;;;;;;20.71;100.00;101985.00;2097652;28;20061;-72
2022/11/12 07:25:18;;;;;;;10.13;4.40;;;;;;;20.67;100.00;101977.00;2104560;28;20047;-72
2022/11/12 07:26:59;;;;;;;12.95;5.15;;;;;;;20.59;100.00;101983.31;2111920;28;20039;-72
2022/11/12 07:28:42;;;;;;;14.13;5.05;;;;;;;20.44;100.00;101988.75;2108396;28;20142;-72
2022/11/12 07:30:23;;;;;;;11.68;5.00;;;;;;;20.15;100.00;101984.38;2112983;28;20052;-72
2022/11/12 07:32:04;;;;;;;12.45;5.15;;;;;;;19.84;100.00;101985.38;2105152;28;20101;-72
2022/11/12 07:33:47;;;;;;;11.80;5.07;;;;;;;19.58;100.00;101977.41;2096214;28;20057;-71
2022/11/12 07:35:28;;;;;;;13.25;5.95;;;;;;;19.40;100.00;101982.78;2112959;28;20046;-72
2022/11/12 07:37:09;;;;;;;12.50;5.13;;;;;;;19.31;100.00;101980.97;2104761;28;20063;-71
2022/11/12 07:38:52;;;;;;;13.07;4.68;;;;;;;19.27;100.00;101978.31;2104905;28;20051;-71
2022/11/12 07:40:33;;;;;;;11.43;5.03;;;;;;;19.36;100.00;101986.34;2103765;28;20396;-71
2022/11/12 07:42:14;;;;;;;14.75;5.72;;;;;;;19.66;100.00;101980.97;2106617;28;20338;-72
2022/11/12 07:43:56;;;;;;;9.68;4.60;;;;;;;20.12;100.00;101979.03;2104548;28;20354;-72
2022/11/12 07:45:37;;;;;;;12.50;5.85;;;;;;;20.61;100.00;101979.69;2112840;28;20043;-72
2022/11/12 07:47:18;;;;;;;10.98;4.40;;;;;;;21.09;100.00;101974.88;2104715;28;20071;-72
2022/11/12 07:48:59;;;;;;;12.73;4.07;;;;;;;21.55;100.00;101980.75;2104523;28;20047;-72
2022/11/12 07:50:40;;;;;;;13.02;3.70;;;;;;;21.90;97.38;101971.44;2109986;28;20576;-73
2022/11/12 07:52:22;;;;;;;11.88;4.22;;;;;;;22.13;93.90;101969.38;2111420;28;20055;-72
2022/11/12 07:54:03;;;;;;;8.85;3.40;;;;;;;22.35;92.09;101967.28;2103938;28;20087;-73
2022/11/12 07:55:44;;;;;;;10.95;3.47;;;;;;;22.59;91.11;101966.94;2103729;28;20097;-72
2022/11/12 07:57:24;;;;;;;11.23;3.00;;;;;;;22.82;89.70;101966.63;2121006;28;20066;-73
2022/11/12 07:59:07;;;;;;;8.50;2.92;;;;;;;23.03;89.99;101963.59;2113352;28;20055;-71
2022/11/12 08:00:48;;;;;;;7.60;2.90;;;;;;;23.01;90.15;101971.69;2104315;28;20481;-71